createdAt,value
2023-05-12T00:05:17.855Z,10.19
2023-05-12T00:15:22.535Z,10.08
2023-05-12T00:25:25.526Z,9.98
2023-05-12T00:35:30.325Z,9.87
2023-05-12T00:45:33.284Z,9.77
2023-05-12T00:55:38.749Z,9.65
2023-05-12T01:05:49.270Z,9.53
2023-05-12T01:15:56.405Z,9.40
2023-05-12T01:26:05.832Z,9.28
2023-05-12T01:36:09.105Z,9.16
2023-05-12T01:46:13.842Z,9.06
2023-05-12T01:56:16.863Z,8.96
2023-05-12T02:06:22.257Z,8.89
2023-05-12T02:16:25.793Z,8.82
2023-05-12T02:26:30.674Z,8.83
2023-05-12T02:36:34.148Z,9.09
2023-05-12T02:46:41.430Z,9.48
2023-05-12T02:56:44.548Z,9.95
2023-05-12T03:06:49.881Z,10.43
2023-05-12T03:16:55.634Z,10.90
2023-05-12T03:27:00.459Z,11.41
2023-05-12T03:37:03.442Z,11.89
2023-05-12T03:47:10.373Z,12.38
2023-05-12T03:57:13.533Z,12.86
2023-05-12T04:07:18.128Z,13.35
2023-05-12T04:17:21.148Z,13.85
2023-05-12T04:27:25.531Z,14.38
2023-05-12T04:37:28.571Z,14.91
2023-05-12T04:47:33.229Z,15.44
2023-05-12T04:57:37.200Z,15.95
2023-05-12T05:07:41.594Z,16.41
2023-05-12T05:17:49.461Z,16.87
2023-05-12T05:27:54.008Z,17.31
2023-05-12T05:37:59.739Z,17.72
2023-05-12T05:48:04.642Z,18.05
2023-05-12T05:58:07.740Z,18.40
2023-05-12T06:08:13.752Z,18.69
2023-05-12T06:18:19.511Z,19.02
2023-05-12T06:28:23.934Z,19.22
2023-05-12T06:38:26.837Z,19.47
2023-05-12T06:48:34.102Z,19.71
2023-05-12T06:58:36.861Z,19.93
2023-05-12T07:08:41.167Z,20.19
2023-05-12T07:18:46.993Z,20.39
2023-05-12T07:28:53.596Z,20.53
2023-05-12T07:38:56.619Z,20.56
2023-05-12T07:49:00.941Z,20.54
2023-05-12T07:59:04.433Z,20.53
2023-05-12T08:09:08.835Z,20.56
2023-05-12T08:19:11.979Z,20.60
2023-05-12T08:29:17.028Z,20.64
2023-05-12T08:39:20.317Z,20.69
2023-05-12T08:49:29.755Z,20.77
2023-05-12T08:59:33.645Z,20.88
2023-05-12T09:09:41.037Z,20.88
2023-05-12T09:19:43.914Z,20.82
2023-05-12T09:29:59.159Z,20.83
2023-05-12T09:40:04.885Z,20.82
2023-05-12T09:50:10.427Z,20.76
2023-05-12T10:00:30.166Z,20.69
2023-05-12T10:10:38.627Z,20.69
2023-05-12T10:20:42.379Z,20.75
2023-05-12T10:30:48.964Z,20.74
2023-05-12T10:40:55.410Z,20.74
2023-05-12T10:51:07.757Z,20.72
2023-05-12T11:01:13.090Z,20.64
2023-05-12T11:11:20.373Z,20.56
2023-05-12T11:21:25.381Z,20.54
2023-05-12T11:31:29.750Z,20.56
2023-05-12T11:41:33.009Z,20.58
2023-05-12T11:51:44.035Z,20.62
2023-05-12T12:01:47.050Z,20.65
2023-05-12T12:11:52.088Z,20.69
2023-05-12T12:21:55.901Z,20.77
2023-05-12T12:32:00.217Z,20.75
2023-05-12T12:42:03.468Z,20.76
2023-05-12T12:52:08.111Z,20.79
2023-05-12T13:02:11.116Z,20.86
2023-05-12T13:12:16.062Z,20.92
2023-05-12T13:22:19.095Z,21.00
2023-05-12T13:32:24.051Z,20.99
2023-05-12T13:42:27.100Z,20.91
2023-05-12T13:52:31.697Z,20.76
2023-05-12T14:02:34.860Z,20.58
2023-05-12T14:12:39.189Z,20.43
2023-05-12T14:22:46.106Z,20.30
2023-05-12T14:32:50.421Z,20.18
2023-05-12T14:42:53.532Z,20.06
2023-05-12T14:52:58.281Z,19.92
2023-05-12T15:03:02.709Z,19.80
2023-05-12T15:13:07.132Z,19.69
2023-05-12T15:23:10.011Z,19.59
2023-05-12T15:33:14.395Z,19.49
2023-05-12T15:43:18.352Z,19.42
2023-05-12T15:53:22.924Z,19.33
2023-05-12T16:03:27.152Z,19.26
2023-05-12T16:13:31.794Z,19.19
2023-05-12T16:23:34.690Z,19.11
2023-05-12T16:33:39.011Z,19.02
2023-05-12T16:43:41.864Z,18.92
2023-05-12T16:53:46.505Z,18.83
2023-05-12T17:03:49.657Z,18.73
2023-05-12T17:13:54.267Z,18.63
2023-05-12T17:23:57.463Z,18.52
2023-05-12T17:34:09.424Z,18.42
2023-05-12T17:44:22.968Z,18.31
2023-05-12T17:54:27.570Z,18.20
2023-05-12T18:04:39.857Z,18.10
2023-05-12T18:15:05.785Z,18.00
2023-05-12T18:25:19.431Z,17.88
2023-05-12T18:35:27.531Z,17.78
2023-05-12T18:45:30.573Z,17.69
2023-05-12T18:55:35.095Z,17.58
2023-05-12T19:07:19.717Z,17.47
2023-05-12T19:16:23.999Z,17.38
2023-05-12T19:26:27.119Z,17.29
2023-05-12T19:36:34.496Z,17.21
2023-05-12T19:46:37.473Z,17.11
2023-05-12T19:56:41.764Z,17.00
2023-05-12T20:06:44.997Z,16.90
2023-05-12T20:16:52.441Z,16.79
2023-05-12T20:27:02.503Z,16.69
2023-05-12T20:37:15.870Z,16.59
2023-05-12T20:47:22.835Z,16.50
2023-05-12T20:57:27.608Z,16.40
2023-05-12T21:07:31.458Z,16.29
2023-05-12T21:17:35.759Z,16.20
2023-05-12T21:27:40.895Z,16.09
2023-05-12T21:37:45.566Z,15.98
2023-05-12T21:47:51.077Z,15.88
2023-05-12T21:57:55.562Z,15.80
2023-05-12T22:07:58.599Z,15.72
2023-05-12T22:18:03.063Z,15.65
2023-05-12T22:28:07.313Z,15.59
2023-05-12T22:38:11.820Z,15.52
2023-05-12T22:48:14.953Z,15.45
2023-05-12T22:58:20.020Z,15.37
2023-05-12T23:08:23.090Z,15.29
2023-05-12T23:18:27.568Z,15.19
2023-05-12T23:28:30.607Z,15.12
2023-05-12T23:38:35.028Z,15.05
2023-05-12T23:48:38.006Z,14.97
2023-05-12T23:58:42.497Z,14.88
